sensor_id;sensor_type;location;lat;lon;timestamp;P1;durP1;ratioP1;P2;durP2;ratioP2
65471;SDS011;52068;50.710;14.492;2023-12-07T00:01:02;10.50;;;8.93;;
65471;SDS011;52068;50.710;14.492;2023-12-07T00:03:28;11.13;;;8.98;;
65471;SDS011;52068;50.710;14.492;2023-12-07T00:05:53;11.88;;;9.07;;
65471;SDS011;52068;50.710;14.492;2023-12-07T00:08:19;11.85;;;9.05;;
65471;SDS011;52068;50.710;14.492;2023-12-07T00:10:44;16.33;;;9.55;;
65471;SDS011;52068;50.710;14.492;2023-12-07T00:13:10;11.45;;;8.98;;
65471;SDS011;52068;50.710;14.492;2023-12-07T00:15:36;17.48;;;9.27;;
65471;SDS011;52068;50.710;14.492;2023-12-07T00:18:02;14.50;;;9.82;;
65471;SDS011;52068;50.710;14.492;2023-12-07T00:20:28;12.57;;;9.20;;
65471;SDS011;52068;50.710;14.492;2023-12-07T00:22:54;11.55;;;8.88;;
65471;SDS011;52068;50.710;14.492;2023-12-07T00:25:20;11.68;;;8.70;;
65471;SDS011;52068;50.710;14.492;2023-12-07T00:27:45;10.30;;;8.93;;
65471;SDS011;52068;50.710;14.492;2023-12-07T00:30:11;10.88;;;8.93;;
65471;SDS011;52068;50.710;14.492;2023-12-07T00:32:36;13.13;;;8.77;;
65471;SDS011;52068;50.710;14.492;2023-12-07T00:35:02;11.43;;;8.77;;
65471;SDS011;52068;50.710;14.492;2023-12-07T00:37:27;12.00;;;8.88;;
65471;SDS011;52068;50.710;14.492;2023-12-07T00:39:53;12.63;;;9.23;;
65471;SDS011;52068;50.710;14.492;2023-12-07T00:42:18;12.25;;;9.15;;
65471;SDS011;52068;50.710;14.492;2023-12-07T00:44:44;10.93;;;8.90;;
65471;SDS011;52068;50.710;14.492;2023-12-07T00:47:09;12.38;;;9.25;;
65471;SDS011;52068;50.710;14.492;2023-12-07T00:49:37;11.77;;;9.00;;
65471;SDS011;52068;50.710;14.492;2023-12-07T00:52:04;11.32;;;9.10;;
65471;SDS011;52068;50.710;14.492;2023-12-07T00:54:30;11.60;;;8.57;;
65471;SDS011;52068;50.710;14.492;2023-12-07T00:56:55;10.32;;;8.30;;
65471;SDS011;52068;50.710;14.492;2023-12-07T00:59:20;11.77;;;8.50;;
65471;SDS011;52068;50.710;14.492;2023-12-07T01:01:46;13.77;;;8.45;;
65471;SDS011;52068;50.710;14.492;2023-12-07T01:04:11;19.25;;;7.85;;
65471;SDS011;52068;50.710;14.492;2023-12-07T01:06:37;10.07;;;8.70;;
65471;SDS011;52068;50.710;14.492;2023-12-07T01:09:02;12.98;;;8.38;;
65471;SDS011;52068;50.710;14.492;2023-12-07T01:11:28;10.60;;;8.27;;
65471;SDS011;52068;50.710;14.492;2023-12-07T01:13:54;12.38;;;8.55;;
65471;SDS011;52068;50.710;14.492;2023-12-07T01:16:19;9.63;;;8.20;;
65471;SDS011;52068;50.710;14.492;2023-12-07T01:18:45;13.23;;;8.65;;
65471;SDS011;52068;50.710;14.492;2023-12-07T01:21:10;10.75;;;8.25;;
65471;SDS011;52068;50.710;14.492;2023-12-07T01:23:37;13.15;;;9.02;;
65471;SDS011;52068;50.710;14.492;2023-12-07T01:26:02;11.65;;;8.77;;
65471;SDS011;52068;50.710;14.492;2023-12-07T01:28:28;18.92;;;8.32;;
65471;SDS011;52068;50.710;14.492;2023-12-07T01:30:53;10.65;;;8.25;;
65471;SDS011;52068;50.710;14.492;2023-12-07T01:33:19;13.02;;;9.13;;
65471;SDS011;52068;50.710;14.492;2023-12-07T01:35:45;12.02;;;8.60;;
65471;SDS011;52068;50.710;14.492;2023-12-07T01:38:10;11.07;;;8.63;;
65471;SDS011;52068;50.710;14.492;2023-12-07T01:40:36;10.02;;;8.20;;
65471;SDS011;52068;50.710;14.492;2023-12-07T01:43:01;11.38;;;8.70;;
65471;SDS011;52068;50.710;14.492;2023-12-07T01:45:26;11.75;;;8.95;;
65471;SDS011;52068;50.710;14.492;2023-12-07T01:47:52;9.98;;;8.38;;
65471;SDS011;52068;50.710;14.492;2023-12-07T01:50:18;10.93;;;7.85;;
65471;SDS011;52068;50.710;14.492;2023-12-07T01:52:48;9.60;;;7.85;;
65471;SDS011;52068;50.710;14.492;2023-12-07T01:55:17;12.07;;;8.40;;
65471;SDS011;52068;50.710;14.492;2023-12-07T01:57:44;11.77;;;8.30;;
65471;SDS011;52068;50.710;14.492;2023-12-07T02:00:10;11.43;;;8.30;;
65471;SDS011;52068;50.710;14.492;2023-12-07T02:02:37;10.02;;;8.10;;
65471;SDS011;52068;50.710;14.492;2023-12-07T02:05:04;15.70;;;8.27;;
65471;SDS011;52068;50.710;14.492;2023-12-07T02:07:30;9.43;;;7.80;;
65471;SDS011;52068;50.710;14.492;2023-12-07T02:09:56;10.98;;;8.18;;
65471;SDS011;52068;50.710;14.492;2023-12-07T02:12:23;9.30;;;7.90;;
65471;SDS011;52068;50.710;14.492;2023-12-07T02:14:49;9.20;;;7.43;;
65471;SDS011;52068;50.710;14.492;2023-12-07T02:17:23;10.00;;;8.18;;
65471;SDS011;52068;50.710;14.492;2023-12-07T02:22:42;10.80;;;8.48;;
65471;SDS011;52068;50.710;14.492;2023-12-07T02:25:13;10.25;;;7.88;;
65471;SDS011;52068;50.710;14.492;2023-12-07T02:27:39;12.32;;;8.75;;
65471;SDS011;52068;50.710;14.492;2023-12-07T02:30:07;9.45;;;7.95;;
65471;SDS011;52068;50.710;14.492;2023-12-07T02:32:33;9.38;;;7.50;;
65471;SDS011;52068;50.710;14.492;2023-12-07T02:35:00;10.02;;;8.00;;
65471;SDS011;52068;50.710;14.492;2023-12-07T02:37:27;10.70;;;8.55;;
65471;SDS011;52068;50.710;14.492;2023-12-07T02:39:57;10.50;;;8.40;;
65471;SDS011;52068;50.710;14.492;2023-12-07T02:42:23;11.50;;;7.93;;
65471;SDS011;52068;50.710;14.492;2023-12-07T02:44:51;10.27;;;7.65;;
65471;SDS011;52068;50.710;14.492;2023-12-07T02:47:18;11.82;;;7.82;;
65471;SDS011;52068;50.710;14.492;2023-12-07T02:49:43;10.52;;;7.65;;
65471;SDS011;52068;50.710;14.492;2023-12-07T02:52:09;12.30;;;8.45;;
65471;SDS011;52068;50.710;14.492;2023-12-07T02:54:34;10.82;;;8.00;;
65471;SDS011;52068;50.710;14.492;2023-12-07T02:57:00;9.10;;;7.50;;
65471;SDS011;52068;50.710;14.492;2023-12-07T02:59:25;9.88;;;7.82;;
65471;SDS011;52068;50.710;14.492;2023-12-07T03:01:50;9.70;;;7.15;;
65471;SDS011;52068;50.710;14.492;2023-12-07T03:04:16;10.73;;;8.00;;
65471;SDS011;52068;50.710;14.492;2023-12-07T03:06:41;9.07;;;7.28;;
65471;SDS011;52068;50.710;14.492;2023-12-07T03:09:06;10.77;;;7.57;;
65471;SDS011;52068;50.710;14.492;2023-12-07T03:11:32;9.63;;;7.53;;
65471;SDS011;52068;50.710;14.492;2023-12-07T03:13:57;10.48;;;7.93;;
65471;SDS011;52068;50.710;14.492;2023-12-07T03:16:23;9.55;;;8.05;;
65471;SDS011;52068;50.710;14.492;2023-12-07T03:18:48;8.68;;;7.35;;
65471;SDS011;52068;50.710;14.492;2023-12-07T03:21:13;10.52;;;8.07;;
65471;SDS011;52068;50.710;14.492;2023-12-07T03:23:39;11.77;;;8.48;;
65471;SDS011;52068;50.710;14.492;2023-12-07T03:26:04;10.73;;;7.80;;
65471;SDS011;52068;50.710;14.492;2023-12-07T03:28:30;11.10;;;8.00;;
65471;SDS011;52068;50.710;14.492;2023-12-07T03:30:55;11.15;;;8.02;;
65471;SDS011;52068;50.710;14.492;2023-12-07T03:33:20;11.32;;;7.80;;
65471;SDS011;52068;50.710;14.492;2023-12-07T03:35:46;10.40;;;8.10;;
65471;SDS011;52068;50.710;14.492;2023-12-07T03:38:11;11.27;;;7.88;;
65471;SDS011;52068;50.710;14.492;2023-12-07T03:40:37;10.73;;;8.10;;
65471;SDS011;52068;50.710;14.492;2023-12-07T03:43:03;10.52;;;8.25;;
65471;SDS011;52068;50.710;14.492;2023-12-07T03:45:29;9.88;;;7.50;;
65471;SDS011;52068;50.710;14.492;2023-12-07T03:47:54;9.73;;;7.45;;
65471;SDS011;52068;50.710;14.492;2023-12-07T03:50:20;9.98;;;7.63;;
65471;SDS011;52068;50.710;14.492;2023-12-07T03:52:46;10.43;;;7.63;;
65471;SDS011;52068;50.710;14.492;2023-12-07T03:55:11;11.20;;;7.38;;
65471;SDS011;52068;50.710;14.492;2023-12-07T03:57:36;12.75;;;7.65;;
65471;SDS011;52068;50.710;14.492;2023-12-07T04:00:02;11.52;;;8.00;;
65471;SDS011;52068;50.710;14.492;2023-12-07T04:02:29;9.10;;;7.38;;
65471;SDS011;52068;50.710;14.492;2023-12-07T04:04:58;10.15;;;8.00;;
65471;SDS011;52068;50.710;14.492;2023-12-07T04:07:26;9.82;;;7.75;;
65471;SDS011;52068;50.710;14.492;2023-12-07T04:09:53;12.00;;;7.78;;
65471;SDS011;52068;50.710;14.492;2023-12-07T04:12:18;10.05;;;7.53;;
65471;SDS011;52068;50.710;14.492;2023-12-07T04:14:44;9.50;;;7.65;;
65471;SDS011;52068;50.710;14.492;2023-12-07T04:17:10;9.98;;;7.43;;
65471;SDS011;52068;50.710;14.492;2023-12-07T04:19:35;10.15;;;7.78;;
65471;SDS011;52068;50.710;14.492;2023-12-07T04:22:01;11.32;;;7.63;;
65471;SDS011;52068;50.710;14.492;2023-12-07T04:24:27;13.63;;;7.45;;
65471;SDS011;52068;50.710;14.492;2023-12-07T04:26:52;11.38;;;7.93;;
65471;SDS011;52068;50.710;14.492;2023-12-07T04:29:17;11.25;;;7.05;;
65471;SDS011;52068;50.710;14.492;2023-12-07T04:31:43;10.27;;;8.00;;
65471;SDS011;52068;50.710;14.492;2023-12-07T04:34:09;11.50;;;7.45;;
65471;SDS011;52068;50.710;14.492;2023-12-07T04:36:34;9.13;;;7.78;;
65471;SDS011;52068;50.710;14.492;2023-12-07T04:39:00;11.15;;;7.93;;
65471;SDS011;52068;50.710;14.492;2023-12-07T04:41:25;20.90;;;8.32;;
65471;SDS011;52068;50.710;14.492;2023-12-07T04:43:50;10.75;;;7.82;;
65471;SDS011;52068;50.710;14.492;2023-12-07T04:46:16;11.25;;;7.72;;
65471;SDS011;52068;50.710;14.492;2023-12-07T04:48:41;11.38;;;7.85;;
65471;SDS011;52068;50.710;14.492;2023-12-07T04:51:07;12.75;;;7.95;;
65471;SDS011;52068;50.710;14.492;2023-12-07T04:53:32;13.15;;;8.18;;
65471;SDS011;52068;50.710;14.492;2023-12-07T04:55:58;10.07;;;7.78;;
65471;SDS011;52068;50.710;14.492;2023-12-07T04:58:23;11.68;;;8.45;;
65471;SDS011;52068;50.710;14.492;2023-12-07T05:00:49;11.65;;;8.23;;
65471;SDS011;52068;50.710;14.492;2023-12-07T05:03:14;9.60;;;7.53;;
65471;SDS011;52068;50.710;14.492;2023-12-07T05:05:39;8.45;;;7.40;;
65471;SDS011;52068;50.710;14.492;2023-12-07T05:08:05;10.68;;;7.82;;
65471;SDS011;52068;50.710;14.492;2023-12-07T05:10:30;11.30;;;7.85;;
65471;SDS011;52068;50.710;14.492;2023-12-07T05:12:56;10.55;;;7.78;;
65471;SDS011;52068;50.710;14.492;2023-12-07T05:15:22;9.35;;;7.30;;
65471;SDS011;52068;50.710;14.492;2023-12-07T05:17:47;10.25;;;7.75;;
65471;SDS011;52068;50.710;14.492;2023-12-07T05:20:13;10.45;;;7.65;;
65471;SDS011;52068;50.710;14.492;2023-12-07T05:22:38;9.80;;;7.45;;
65471;SDS011;52068;50.710;14.492;2023-12-07T05:25:03;11.15;;;7.57;;
65471;SDS011;52068;50.710;14.492;2023-12-07T05:27:30;12.13;;;7.55;;
65471;SDS011;52068;50.710;14.492;2023-12-07T05:29:55;11.00;;;7.38;;
65471;SDS011;52068;50.710;14.492;2023-12-07T05:32:21;9.65;;;7.55;;
65471;SDS011;52068;50.710;14.492;2023-12-07T05:34:47;9.82;;;7.53;;
65471;SDS011;52068;50.710;14.492;2023-12-07T05:37:12;9.63;;;7.10;;
65471;SDS011;52068;50.710;14.492;2023-12-07T05:39:37;9.18;;;7.18;;
65471;SDS011;52068;50.710;14.492;2023-12-07T05:42:03;9.07;;;7.35;;
65471;SDS011;52068;50.710;14.492;2023-12-07T05:44:29;9.93;;;7.40;;
65471;SDS011;52068;50.710;14.492;2023-12-07T05:46:55;10.65;;;7.63;;
65471;SDS011;52068;50.710;14.492;2023-12-07T05:49:22;12.38;;;8.15;;
65471;SDS011;52068;50.710;14.492;2023-12-07T05:51:48;10.13;;;7.55;;
65471;SDS011;52068;50.710;14.492;2023-12-07T05:54:14;10.32;;;7.80;;
65471;SDS011;52068;50.710;14.492;2023-12-07T05:56:39;12.23;;;7.63;;
65471;SDS011;52068;50.710;14.492;2023-12-07T05:59:05;9.07;;;7.18;;
65471;SDS011;52068;50.710;14.492;2023-12-07T06:01:31;10.30;;;7.25;;
65471;SDS011;52068;50.710;14.492;2023-12-07T06:03:57;9.50;;;7.10;;
65471;SDS011;52068;50.710;14.492;2023-12-07T06:06:23;10.05;;;7.95;;
65471;SDS011;52068;50.710;14.492;2023-12-07T06:08:48;10.02;;;7.22;;
65471;SDS011;52068;50.710;14.492;2023-12-07T06:11:14;9.38;;;7.00;;
65471;SDS011;52068;50.710;14.492;2023-12-07T06:13:40;9.20;;;7.13;;
65471;SDS011;52068;50.710;14.492;2023-12-07T06:16:05;11.02;;;7.63;;
65471;SDS011;52068;50.710;14.492;2023-12-07T06:18:31;10.75;;;7.18;;
65471;SDS011;52068;50.710;14.492;2023-12-07T06:20:57;9.30;;;7.05;;
65471;SDS011;52068;50.710;14.492;2023-12-07T06:23:22;10.50;;;7.95;;
65471;SDS011;52068;50.710;14.492;2023-12-07T06:25:48;8.73;;;6.93;;
65471;SDS011;52068;50.710;14.492;2023-12-07T06:28:14;10.05;;;7.65;;
65471;SDS011;52068;50.710;14.492;2023-12-07T06:30:39;9.75;;;7.13;;
65471;SDS011;52068;50.710;14.492;2023-12-07T06:33:05;9.07;;;6.95;;
65471;SDS011;52068;50.710;14.492;2023-12-07T06:35:30;9.25;;;6.80;;
65471;SDS011;52068;50.710;14.492;2023-12-07T06:37:56;8.55;;;7.15;;
65471;SDS011;52068;50.710;14.492;2023-12-07T06:40:21;9.23;;;6.82;;
65471;SDS011;52068;50.710;14.492;2023-12-07T06:42:46;8.75;;;7.07;;
65471;SDS011;52068;50.710;14.492;2023-12-07T06:45:13;10.75;;;7.32;;
65471;SDS011;52068;50.710;14.492;2023-12-07T06:47:42;10.52;;;6.80;;
65471;SDS011;52068;50.710;14.492;2023-12-07T06:50:08;10.07;;;7.05;;
65471;SDS011;52068;50.710;14.492;2023-12-07T06:52:35;10.68;;;7.57;;
65471;SDS011;52068;50.710;14.492;2023-12-07T06:55:04;11.88;;;7.50;;
65471;SDS011;52068;50.710;14.492;2023-12-07T06:57:29;10.50;;;6.85;;
65471;SDS011;52068;50.710;14.492;2023-12-07T06:59:55;11.93;;;6.85;;
65471;SDS011;52068;50.710;14.492;2023-12-07T07:02:20;11.18;;;7.43;;
65471;SDS011;52068;50.710;14.492;2023-12-07T07:04:46;10.75;;;6.85;;
65471;SDS011;52068;50.710;14.492;2023-12-07T07:07:13;13.50;;;7.47;;
65471;SDS011;52068;50.710;14.492;2023-12-07T07:09:39;9.13;;;6.57;;
65471;SDS011;52068;50.710;14.492;2023-12-07T07:12:05;8.80;;;6.72;;
65471;SDS011;52068;50.710;14.492;2023-12-07T07:14:30;9.52;;;7.20;;
65471;SDS011;52068;50.710;14.492;2023-12-07T07:16:56;8.57;;;7.40;;
65471;SDS011;52068;50.710;14.492;2023-12-07T07:19:21;10.65;;;7.43;;
65471;SDS011;52068;50.710;14.492;2023-12-07T07:21:46;9.68;;;6.75;;
65471;SDS011;52068;50.710;14.492;2023-12-07T07:24:12;9.20;;;7.03;;
65471;SDS011;52068;50.710;14.492;2023-12-07T07:26:37;10.65;;;7.53;;
65471;SDS011;52068;50.710;14.492;2023-12-07T07:29:03;9.82;;;7.80;;
65471;SDS011;52068;50.710;14.492;2023-12-07T07:31:29;12.75;;;7.88;;
65471;SDS011;52068;50.710;14.492;2023-12-07T07:33:55;13.98;;;7.70;;
65471;SDS011;52068;50.710;14.492;2023-12-07T07:36:20;12.27;;;7.78;;
65471;SDS011;52068;50.710;14.492;2023-12-07T07:38:46;11.60;;;7.65;;
65471;SDS011;52068;50.710;14.492;2023-12-07T07:41:13;10.27;;;7.90;;
65471;SDS011;52068;50.710;14.492;2023-12-07T07:43:38;12.27;;;8.02;;
65471;SDS011;52068;50.710;14.492;2023-12-07T07:46:04;11.95;;;7.72;;
65471;SDS011;52068;50.710;14.492;2023-12-07T07:48:30;11.27;;;7.93;;
65471;SDS011;52068;50.710;14.492;2023-12-07T07:50:55;11.98;;;8.73;;
65471;SDS011;52068;50.710;14.492;2023-12-07T07:53:21;12.25;;;8.05;;
65471;SDS011;52068;50.710;14.492;2023-12-07T07:55:46;12.07;;;7.78;;
65471;SDS011;52068;50.710;14.492;2023-12-07T07:58:11;10.07;;;7.75;;
65471;SDS011;52068;50.710;14.492;2023-12-07T08:00:37;11.80;;;8.10;;
65471;SDS011;52068;50.710;14.492;2023-12-07T08:03:03;12.63;;;7.85;;
65471;SDS011;52068;50.710;14.492;2023-12-07T08:05:28;12.38;;;8.30;;
65471;SDS011;52068;50.710;14.492;2023-12-07T08:07:53;11.68;;;7.82;;
65471;SDS011;52068;50.710;14.492;2023-12-07T08:10:19;14.30;;;8.70;;
65471;SDS011;52068;50.710;14.492;2023-12-07T08:12:45;12.32;;;7.88;;
65471;SDS011;52068;50.710;14.492;2023-12-07T08:15:10;13.77;;;7.93;;
65471;SDS011;52068;50.710;14.492;2023-12-07T08:17:39;28.00;;;18.85;;
65471;SDS011;52068;50.710;14.492;2023-12-07T08:20:06;30.92;;;19.88;;
65471;SDS011;52068;50.710;14.492;2023-12-07T08:22:36;31.52;;;21.08;;
65471;SDS011;52068;50.710;14.492;2023-12-07T08:25:06;32.95;;;20.48;;
65471;SDS011;52068;50.710;14.492;2023-12-07T08:27:32;33.53;;;22.02;;
65471;SDS011;52068;50.710;14.492;2023-12-07T08:29:58;35.80;;;21.13;;
65471;SDS011;52068;50.710;14.492;2023-12-07T08:32:24;33.80;;;21.48;;
65471;SDS011;52068;50.710;14.492;2023-12-07T08:34:51;33.83;;;22.65;;
65471;SDS011;52068;50.710;14.492;2023-12-07T08:37:17;33.13;;;21.63;;
65471;SDS011;52068;50.710;14.492;2023-12-07T08:39:42;36.28;;;23.50;;
65471;SDS011;52068;50.710;14.492;2023-12-07T08:42:08;36.00;;;22.48;;
65471;SDS011;52068;50.710;14.492;2023-12-07T08:44:33;31.98;;;23.40;;
65471;SDS011;52068;50.710;14.492;2023-12-07T08:46:59;36.08;;;23.48;;
65471;SDS011;52068;50.710;14.492;2023-12-07T08:49:24;34.95;;;25.17;;
65471;SDS011;52068;50.710;14.492;2023-12-07T08:51:51;37.97;;;24.77;;
65471;SDS011;52068;50.710;14.492;2023-12-07T08:54:18;29.88;;;20.38;;
65471;SDS011;52068;50.710;14.492;2023-12-07T08:56:44;30.38;;;17.50;;
65471;SDS011;52068;50.710;14.492;2023-12-07T08:59:11;22.77;;;16.40;;
65471;SDS011;52068;50.710;14.492;2023-12-07T09:01:36;26.98;;;15.70;;
65471;SDS011;52068;50.710;14.492;2023-12-07T09:04:01;24.42;;;14.88;;
65471;SDS011;52068;50.710;14.492;2023-12-07T09:06:28;21.40;;;14.30;;
65471;SDS011;52068;50.710;14.492;2023-12-07T09:08:53;19.52;;;13.90;;
65471;SDS011;52068;50.710;14.492;2023-12-07T09:11:20;18.60;;;13.77;;
65471;SDS011;52068;50.710;14.492;2023-12-07T09:13:45;25.00;;;13.23;;
65471;SDS011;52068;50.710;14.492;2023-12-07T09:16:11;21.45;;;13.82;;
65471;SDS011;52068;50.710;14.492;2023-12-07T09:18:36;18.95;;;13.80;;
65471;SDS011;52068;50.710;14.492;2023-12-07T09:21:02;21.63;;;13.63;;
65471;SDS011;52068;50.710;14.492;2023-12-07T09:23:28;22.95;;;13.27;;
65471;SDS011;52068;50.710;14.492;2023-12-07T09:25:53;20.38;;;12.73;;
65471;SDS011;52068;50.710;14.492;2023-12-07T09:28:19;18.63;;;13.20;;
65471;SDS011;52068;50.710;14.492;2023-12-07T09:30:44;23.33;;;13.43;;
65471;SDS011;52068;50.710;14.492;2023-12-07T09:33:10;16.70;;;12.88;;
65471;SDS011;52068;50.710;14.492;2023-12-07T09:35:35;18.67;;;13.10;;
65471;SDS011;52068;50.710;14.492;2023-12-07T09:38:01;18.63;;;11.98;;
65471;SDS011;52068;50.710;14.492;2023-12-07T09:40:26;21.50;;;12.43;;
65471;SDS011;52068;50.710;14.492;2023-12-07T09:42:53;16.00;;;12.07;;
65471;SDS011;52068;50.710;14.492;2023-12-07T09:45:19;17.35;;;12.52;;
65471;SDS011;52068;50.710;14.492;2023-12-07T09:47:49;18.48;;;12.00;;
65471;SDS011;52068;50.710;14.492;2023-12-07T09:50:20;22.00;;;12.40;;
65471;SDS011;52068;50.710;14.492;2023-12-07T09:52:50;16.75;;;11.30;;
65471;SDS011;52068;50.710;14.492;2023-12-07T09:55:16;22.80;;;12.45;;
65471;SDS011;52068;50.710;14.492;2023-12-07T09:57:43;17.08;;;11.40;;
65471;SDS011;52068;50.710;14.492;2023-12-07T10:00:11;21.63;;;11.65;;
65471;SDS011;52068;50.710;14.492;2023-12-07T10:02:39;19.85;;;11.55;;
65471;SDS011;52068;50.710;14.492;2023-12-07T10:05:06;25.35;;;11.98;;
65471;SDS011;52068;50.710;14.492;2023-12-07T10:07:33;17.88;;;11.77;;
65471;SDS011;52068;50.710;14.492;2023-12-07T10:10:00;19.27;;;11.40;;
65471;SDS011;52068;50.710;14.492;2023-12-07T10:12:26;17.13;;;10.88;;
65471;SDS011;52068;50.710;14.492;2023-12-07T10:14:51;26.60;;;12.57;;
65471;SDS011;52068;50.710;14.492;2023-12-07T10:17:17;18.77;;;11.63;;
65471;SDS011;52068;50.710;14.492;2023-12-07T10:19:42;16.75;;;10.80;;
65471;SDS011;52068;50.710;14.492;2023-12-07T10:22:14;16.05;;;11.23;;
65471;SDS011;52068;50.710;14.492;2023-12-07T10:24:42;16.23;;;11.13;;
65471;SDS011;52068;50.710;14.492;2023-12-07T10:27:08;18.13;;;11.20;;
65471;SDS011;52068;50.710;14.492;2023-12-07T10:29:37;17.52;;;10.07;;
65471;SDS011;52068;50.710;14.492;2023-12-07T10:32:02;14.38;;;10.35;;
65471;SDS011;52068;50.710;14.492;2023-12-07T10:34:29;15.20;;;11.00;;
65471;SDS011;52068;50.710;14.492;2023-12-07T10:36:59;15.90;;;11.18;;
65471;SDS011;52068;50.710;14.492;2023-12-07T10:39:24;16.33;;;10.68;;
65471;SDS011;52068;50.710;14.492;2023-12-07T10:41:52;20.20;;;10.30;;
65471;SDS011;52068;50.710;14.492;2023-12-07T10:44:26;14.00;;;10.30;;
65471;SDS011;52068;50.710;14.492;2023-12-07T10:46:54;14.48;;;10.52;;
65471;SDS011;52068;50.710;14.492;2023-12-07T10:49:21;12.73;;;10.10;;
65471;SDS011;52068;50.710;14.492;2023-12-07T10:51:53;14.48;;;10.85;;
65471;SDS011;52068;50.710;14.492;2023-12-07T10:54:26;13.35;;;10.18;;
65471;SDS011;52068;50.710;14.492;2023-12-07T10:57:01;15.57;;;10.95;;
65471;SDS011;52068;50.710;14.492;2023-12-07T10:59:30;14.15;;;10.25;;
65471;SDS011;52068;50.710;14.492;2023-12-07T11:01:56;14.68;;;11.00;;
65471;SDS011;52068;50.710;14.492;2023-12-07T11:04:22;15.45;;;10.68;;
65471;SDS011;52068;50.710;14.492;2023-12-07T11:06:49;15.98;;;11.07;;
65471;SDS011;52068;50.710;14.492;2023-12-07T11:09:24;16.98;;;10.93;;
65471;SDS011;52068;50.710;14.492;2023-12-07T11:12:05;19.77;;;11.32;;
65471;SDS011;52068;50.710;14.492;2023-12-07T11:14:35;15.20;;;9.93;;
65471;SDS011;52068;50.710;14.492;2023-12-07T11:17:02;13.57;;;10.20;;
65471;SDS011;52068;50.710;14.492;2023-12-07T11:21:57;14.90;;;10.05;;
65471;SDS011;52068;50.710;14.492;2023-12-07T11:24:24;15.15;;;10.43;;
65471;SDS011;52068;50.710;14.492;2023-12-07T11:26:53;14.13;;;9.98;;
65471;SDS011;52068;50.710;14.492;2023-12-07T11:29:27;13.10;;;9.35;;
65471;SDS011;52068;50.710;14.492;2023-12-07T11:31:57;12.68;;;9.55;;
65471;SDS011;52068;50.710;14.492;2023-12-07T11:34:39;13.77;;;9.63;;
65471;SDS011;52068;50.710;14.492;2023-12-07T11:37:06;15.25;;;10.68;;
65471;SDS011;52068;50.710;14.492;2023-12-07T11:39:35;14.00;;;10.10;;
65471;SDS011;52068;50.710;14.492;2023-12-07T11:42:18;13.20;;;10.02;;
65471;SDS011;52068;50.710;14.492;2023-12-07T11:44:45;13.85;;;9.73;;
65471;SDS011;52068;50.710;14.492;2023-12-07T11:47:17;14.80;;;9.98;;
65471;SDS011;52068;50.710;14.492;2023-12-07T11:49:44;12.93;;;9.57;;
65471;SDS011;52068;50.710;14.492;2023-12-07T11:52:20;13.75;;;10.02;;
65471;SDS011;52068;50.710;14.492;2023-12-07T11:54:46;17.15;;;9.85;;
65471;SDS011;52068;50.710;14.492;2023-12-07T11:57:14;12.85;;;10.07;;
65471;SDS011;52068;50.710;14.492;2023-12-07T11:59:41;14.35;;;9.88;;
65471;SDS011;52068;50.710;14.492;2023-12-07T12:02:06;14.32;;;10.38;;
65471;SDS011;52068;50.710;14.492;2023-12-07T12:04:32;16.40;;;10.10;;
65471;SDS011;52068;50.710;14.492;2023-12-07T12:06:57;14.38;;;9.95;;
65471;SDS011;52068;50.710;14.492;2023-12-07T12:09:26;15.10;;;10.55;;
65471;SDS011;52068;50.710;14.492;2023-12-07T12:11:51;15.05;;;10.20;;
65471;SDS011;52068;50.710;14.492;2023-12-07T12:14:17;23.33;;;10.43;;
65471;SDS011;52068;50.710;14.492;2023-12-07T12:16:46;12.75;;;10.20;;
65471;SDS011;52068;50.710;14.492;2023-12-07T12:19:11;13.82;;;9.75;;
65471;SDS011;52068;50.710;14.492;2023-12-07T12:21:37;13.85;;;9.90;;
65471;SDS011;52068;50.710;14.492;2023-12-07T12:24:04;17.08;;;10.65;;
65471;SDS011;52068;50.710;14.492;2023-12-07T12:26:31;13.75;;;9.93;;
65471;SDS011;52068;50.710;14.492;2023-12-07T12:28:59;13.35;;;9.90;;
65471;SDS011;52068;50.710;14.492;2023-12-07T12:31:26;13.80;;;9.95;;
65471;SDS011;52068;50.710;14.492;2023-12-07T12:33:51;13.02;;;9.77;;
65471;SDS011;52068;50.710;14.492;2023-12-07T12:36:18;12.93;;;9.27;;
65471;SDS011;52068;50.710;14.492;2023-12-07T12:38:46;11.60;;;9.02;;
65471;SDS011;52068;50.710;14.492;2023-12-07T12:41:17;13.70;;;10.55;;
65471;SDS011;52068;50.710;14.492;2023-12-07T12:43:43;15.32;;;9.75;;
65471;SDS011;52068;50.710;14.492;2023-12-07T12:46:10;12.85;;;9.80;;
65471;SDS011;52068;50.710;14.492;2023-12-07T12:48:36;14.30;;;9.48;;
65471;SDS011;52068;50.710;14.492;2023-12-07T12:51:08;12.98;;;9.77;;
65471;SDS011;52068;50.710;14.492;2023-12-07T12:53:41;13.65;;;9.68;;
65471;SDS011;52068;50.710;14.492;2023-12-07T12:58:35;15.80;;;10.43;;
65471;SDS011;52068;50.710;14.492;2023-12-07T13:01:01;13.45;;;9.88;;
65471;SDS011;52068;50.710;14.492;2023-12-07T13:03:28;13.18;;;10.07;;
65471;SDS011;52068;50.710;14.492;2023-12-07T13:05:54;13.77;;;9.70;;
65471;SDS011;52068;50.710;14.492;2023-12-07T13:08:19;14.75;;;9.68;;
65471;SDS011;52068;50.710;14.492;2023-12-07T13:10:45;13.30;;;9.70;;
65471;SDS011;52068;50.710;14.492;2023-12-07T13:13:10;12.82;;;9.38;;
65471;SDS011;52068;50.710;14.492;2023-12-07T13:15:35;14.80;;;9.82;;
65471;SDS011;52068;50.710;14.492;2023-12-07T13:18:02;14.43;;;9.93;;
65471;SDS011;52068;50.710;14.492;2023-12-07T13:20:29;14.30;;;9.00;;
65471;SDS011;52068;50.710;14.492;2023-12-07T13:22:55;14.43;;;9.70;;
65471;SDS011;52068;50.710;14.492;2023-12-07T13:25:21;11.73;;;9.32;;
65471;SDS011;52068;50.710;14.492;2023-12-07T13:27:46;14.45;;;9.88;;
65471;SDS011;52068;50.710;14.492;2023-12-07T13:30:11;15.43;;;9.23;;
65471;SDS011;52068;50.710;14.492;2023-12-07T13:32:37;14.15;;;9.02;;
65471;SDS011;52068;50.710;14.492;2023-12-07T13:35:03;14.65;;;9.55;;
65471;SDS011;52068;50.710;14.492;2023-12-07T13:37:30;13.80;;;9.88;;
65471;SDS011;52068;50.710;14.492;2023-12-07T13:39:55;12.63;;;9.35;;
65471;SDS011;52068;50.710;14.492;2023-12-07T13:42:23;14.68;;;9.27;;
65471;SDS011;52068;50.710;14.492;2023-12-07T13:44:52;12.57;;;9.60;;
65471;SDS011;52068;50.710;14.492;2023-12-07T13:47:19;14.00;;;9.10;;
65471;SDS011;52068;50.710;14.492;2023-12-07T13:49:45;12.40;;;9.60;;
65471;SDS011;52068;50.710;14.492;2023-12-07T13:52:11;18.60;;;9.25;;
65471;SDS011;52068;50.710;14.492;2023-12-07T13:54:36;11.65;;;9.55;;
65471;SDS011;52068;50.710;14.492;2023-12-07T13:57:01;12.38;;;8.93;;
65471;SDS011;52068;50.710;14.492;2023-12-07T13:59:28;12.75;;;9.50;;
65471;SDS011;52068;50.710;14.492;2023-12-07T14:01:54;12.82;;;9.90;;
65471;SDS011;52068;50.710;14.492;2023-12-07T14:04:20;12.25;;;9.57;;
65471;SDS011;52068;50.710;14.492;2023-12-07T14:06:46;12.35;;;9.40;;
65471;SDS011;52068;50.710;14.492;2023-12-07T14:09:11;14.93;;;9.40;;
65471;SDS011;52068;50.710;14.492;2023-12-07T14:11:36;20.63;;;10.10;;
65471;SDS011;52068;50.710;14.492;2023-12-07T14:14:02;14.98;;;9.57;;
65471;SDS011;52068;50.710;14.492;2023-12-07T14:16:28;13.30;;;9.43;;
65471;SDS011;52068;50.710;14.492;2023-12-07T14:18:54;13.30;;;9.68;;
65471;SDS011;52068;50.710;14.492;2023-12-07T14:21:20;13.88;;;9.10;;
65471;SDS011;52068;50.710;14.492;2023-12-07T14:23:46;12.85;;;9.48;;